Time;durP1;ratioP1;P1;durP2;ratioP2;P2;SDS_P1;SDS_P2;PMS_P1;PMS_P2;Temp;Humidity;BMP_temperature;BMP_pressure;BME280_temperature;BME280_humidity;BME280_pressure;Samples;Min_cycle;Max_cycle;Signal;HPM_P1;HPM_P2
2023/05/06 10:00:16;;;;;;;6.72;2.10;;;;;;;14.31;36.38;100959.37;1867842;76;26829;-61
2023/05/06 10:02:44;;;;;;;7.53;1.80;;;;;;;14.19;35.88;100951.82;1824466;78;25552;-61
2023/05/06 10:05:12;;;;;;;6.62;2.75;;;;;;;14.12;36.33;100947.98;1824466;78;28267;-62
2023/05/06 10:07:40;;;;;;;12.78;2.75;;;;;;;13.98;35.85;100943.47;1824389;78;25869;-62
2023/05/06 10:10:11;;;;;;;6.10;2.25;;;;;;;13.87;36.32;100948.14;1824090;78;25644;-63
2023/05/06 10:12:38;;;;;;;76.25;71.65;;;;;;;13.81;36.17;100938.77;1823066;78;25821;-63
2023/05/06 10:15:07;;;;;;;28.60;26.30;;;;;;;13.68;36.13;100936.17;1824259;78;25380;-62
2023/05/06 10:17:34;;;;;;;69.90;65.77;;;;;;;13.59;36.12;100934.21;1824752;78;28011;-60
2023/05/06 10:20:03;;;;;;;73.62;69.15;;;;;;;13.29;36.40;100883.38;1824384;78;25432;-61
2023/05/06 10:22:53;;;;;;;71.92;67.55;;;;;;;;;;1824671;78;29767;-60
2023/05/06 10:25:38;;;;;;;74.35;69.60;;;;;;;;;;1824197;78;25508;-60
2023/05/06 10:28:05;;;;;;;10.23;4.58;;;;;;;;;;1824465;78;25438;-57
2023/05/06 10:30:33;;;;;;;2.52;1.82;;;;;;;;;;1824420;78;27527;-56
2023/05/06 10:33:06;;;;;;;2.60;2.20;;;;;;;;;;1824303;78;25395;-57
2023/05/06 10:35:41;;;;;;;6.47;2.45;;;;;;;;;;1823534;78;25628;-56
2023/05/06 10:38:11;;;;;;;5.12;1.90;;;;;;;;;;1824373;78;25526;-59
2023/05/06 10:40:37;;;;;;;6.33;2.20;;;;;;;;;;1806579;78;25409;-56
2023/05/06 10:43:24;;;;;;;4.00;2.05;;;;;;;;;;1824417;78;29653;-57
2023/05/06 10:46:17;;;;;;;92.47;86.15;;;;;;;;;;1824037;78;25550;-59
2023/05/06 10:49:09;;;;;;;7.58;7.17;;;;;;;;;;1824464;78;25594;-58
2023/05/06 10:51:37;;;;;;;7.55;7.22;;;;;;;;;;1824367;78;25431;-56
2023/05/06 10:54:08;;;;;;;8.85;8.45;;;;;;;;;;1824470;78;25387;-57
2023/05/06 10:56:42;;;;;;;11.40;10.80;;;;;;;;;;1824409;78;27559;-57
2023/05/06 10:59:10;;;;;;;7.85;7.45;;;;;;;;;;1821156;78;25467;-53
2023/05/06 11:01:38;;;;;;;6.55;6.25;;;;;;;;;;1824549;78;25461;-52
2023/05/06 11:04:10;;;;;;;7.83;7.42;;;;;;;;;;1824498;78;25462;-53
2023/05/06 11:06:45;;;;;;;7.15;6.75;;;;;;;;;;1823860;78;25520;-56
2023/05/06 11:09:22;;;;;;;9.98;9.48;;;;;;;;;;1824360;78;27554;-56
2023/05/06 11:12:01;;;;;;;10.93;10.32;;;;;;;;;;1823684;78;25430;-55
2023/05/06 11:14:36;;;;;;;10.15;9.65;;;;;;;;;;1823801;78;25327;-56
2023/05/06 11:17:06;;;;;;;11.88;11.28;;;;;;;;;;1823798;78;25354;-52
2023/05/06 11:19:35;;;;;;;106.72;99.42;;;;;;;;;;1823821;78;25458;-53
2023/05/06 11:22:04;;;;;;;17.07;16.05;;;;;;;;;;1823777;78;27412;-51
2023/05/06 11:24:44;;;;;;;9.10;3.87;;;;;;;;;;1823734;78;25451;-54
2023/05/06 11:27:10;;;;;;;12.80;4.73;;;;;;;;;;1771178;79;25507;-55
2023/05/06 11:29:37;;;;;;;16.77;11.00;;;;;;;;;;1769884;81;25580;-52
2023/05/06 11:32:08;;;;;;;11.43;4.55;;;;;;;;;;1769967;81;25404;-56
2023/05/06 11:34:37;;;;;;;4.65;2.35;;;;;;;;;;1766164;81;27412;-57
2023/05/06 11:37:06;;;;;;;6.80;2.83;;;;;;;;;;1769833;81;25550;-57
2023/05/06 11:39:35;;;;;;;6.58;3.33;;;;;;;;;;1770017;81;25313;-55
2023/05/06 11:42:05;;;;;;;6.92;3.00;;;;;;;;;;1770164;81;25553;-54
2023/05/06 11:44:37;;;;;;;5.60;2.77;;;;;;;;;;1769985;81;25393;-55
2023/05/06 11:47:06;;;;;;;8.58;2.80;;;;;;;;;;1769891;81;29427;-53
2023/05/06 11:49:42;;;;;;;7.03;2.95;;;;;;;;;;1769551;81;25463;-53
2023/05/06 11:52:11;;;;;;;5.55;2.90;;;;;;;;;;1805911;78;25351;-56
2023/05/06 11:54:40;;;;;;;2.77;2.27;;;;;;;;;;1823020;78;25716;-53
2023/05/06 11:57:08;;;;;;;3.72;2.30;;;;;;;;;;1822536;78;32786;-58
2023/05/06 11:59:38;;;;;;;3.00;2.08;;;;;;;;;;1823071;78;29561;-57
2023/05/06 12:02:12;;;;;;;69.40;64.85;;;;;;;;;;1823718;78;25287;-58
2023/05/06 12:04:45;;;;;;;49.15;45.88;;;;;;;;;;1823786;78;25486;-55
2023/05/06 12:07:14;;;;;;;5.60;3.25;;;;;;;;;;1823452;78;27488;-55
2023/05/06 12:09:45;;;;;;;3.37;2.37;;;;;;;;;;1823822;78;25541;-55
2023/05/06 12:12:18;;;;;;;11.57;3.17;;;;;;;;;;1823751;78;27332;-53
2023/05/06 12:14:45;;;;;;;4.28;2.60;;;;;;;;;;1823693;78;25464;-54
2023/05/06 12:17:13;;;;;;;77.08;72.17;;;;;;;;;;1823756;78;25514;-57
2023/05/06 12:19:40;;;;;;;12.30;2.77;;;;;;;;;;1823878;78;25292;-58
2023/05/06 12:22:20;;;;;;;6.30;2.90;;;;;;;;;;1823731;78;25334;-53
2023/05/06 12:24:48;;;;;;;6.85;2.65;;;;;;;;;;1824034;78;28113;-56
2023/05/06 12:27:35;;;;;;;8.28;3.17;;;;;;;;;;1823690;78;25493;-58
2023/05/06 12:30:03;;;;;;;13.68;2.95;;;;;;;;;;1823855;78;25450;-56
2023/05/06 12:32:30;;;;;;;75.80;70.95;;;;;;;;;;1823746;78;25516;-56
2023/05/06 12:34:59;;;;;;;96.95;89.90;;;;;;;;;;1823795;78;25449;-54
2023/05/06 12:37:29;;;;;;;6.05;3.55;;;;;;;;;;1823906;78;27339;-57
2023/05/06 12:39:57;;;;;;;10.60;10.10;;;;;;;;;;1823606;78;25312;-55
2023/05/06 12:42:24;;;;;;;12.98;12.37;;;;;;;;;;1823884;78;25321;-56
2023/05/06 12:44:51;;;;;;;9.43;9.03;;;;;;;;;;1823866;78;25503;-56
2023/05/06 12:47:23;;;;;;;15.28;14.40;;;;;;;;;;1824059;78;25531;-54
2023/05/06 12:50:00;;;;;;;10.23;9.80;;;;;;;;;;1824086;78;27336;-58
2023/05/06 12:52:27;;;;;;;8.70;8.35;;;;;;;;;;1822510;78;25468;-57
2023/05/06 12:54:55;;;;;;;12.00;11.48;;;;;;;;;;1823738;78;25292;-57
2023/05/06 12:57:22;;;;;;;9.10;8.80;;;;;;;;;;1823809;78;27324;-56
2023/05/06 12:59:49;;;;;;;11.88;11.38;;;;;;;;;;1823606;78;25349;-51
2023/05/06 13:02:18;;;;;;;9.23;8.85;;;;;;;;;;1823702;78;27428;-56
2023/05/06 13:04:45;;;;;;;;;;;;;;;;;;1826356;78;25453;-58
2023/05/06 13:07:13;;;;;;;6.87;6.62;;;;;;;;;;1823751;78;25465;-58
2023/05/06 13:11:23;;;;;;;11.70;10.97;;;;;;;11.37;49.64;100891.98;1868289;76;32166;-58
2023/05/06 13:13:49;;;;;;;105.97;97.97;;;;;;;;;;1824462;78;25359;-58
2023/05/06 13:16:15;;;;;;;111.73;103.47;;;;;;;;;;1824571;78;32193;-60
2023/05/06 13:18:41;;;;;;;84.30;78.97;;;;;;;;;;1824338;78;25787;-59
2023/05/06 13:21:07;;;;;;;94.43;87.70;;;;;;;;;;1824465;78;34739;-58
2023/05/06 13:23:35;;;;;;;8.63;8.23;;;;;;;;;;1824342;78;32222;-60
2023/05/06 13:26:04;;;;;;;97.40;90.77;;;;;;;;;;1824435;78;25534;-59
2023/05/06 13:28:31;;;;;;;9.03;8.63;;;;;;;;;;1824722;78;28285;-56
2023/05/06 13:30:57;;;;;;;8.55;8.15;;;;;;;;;;1824406;78;25437;-60
2023/05/06 13:33:22;;;;;;;8.17;7.80;;;;;;;;;;1824537;78;35101;-58
2023/05/06 13:35:48;;;;;;;11.63;11.13;;;;;;;;;;1824376;78;32285;-57
2023/05/06 13:38:14;;;;;;;45.43;42.40;;;;;;;;;;1824415;78;26301;-57
2023/05/06 13:40:40;;;;;;;95.43;88.43;;;;;;;;;;1824476;78;32421;-53
2023/05/06 13:43:06;;;;;;;77.63;71.60;;;;;;;;;;1824320;78;30005;-55
2023/05/06 13:45:32;;;;;;;80.43;74.83;;;;;;;;;;1824552;78;25655;-52
2023/05/06 13:47:58;;;;;;;80.22;74.25;;;;;;;;;;1824425;78;25392;-50
2023/05/06 13:50:24;;;;;;;79.87;74.05;;;;;;;;;;1824454;78;25363;-50
2023/05/06 13:52:50;;;;;;;79.53;74.13;;;;;;;;;;1824439;78;27702;-52
2023/05/06 13:55:16;;;;;;;81.72;75.87;;;;;;;;;;1824290;78;25598;-49
2023/05/06 13:57:42;;;;;;;78.95;73.55;;;;;;;;;;1824378;78;25366;-51
2023/05/06 14:00:11;;;;;;;79.97;74.33;;;;;;;;;;1824387;78;25391;-50
2023/05/06 14:02:37;;;;;;;81.60;75.85;;;;;;;;;;1824411;78;25532;-48
2023/05/06 14:05:06;;;;;;;78.87;73.55;;;;;;;;;;1824407;78;27585;-48
2023/05/06 14:07:32;;;;;;;79.40;74.00;;;;;;;;;;1824324;78;25366;-48
2023/05/06 14:09:58;;;;;;;65.03;60.40;;;;;;;;;;1824247;77;25516;-47
2023/05/06 14:12:24;;;;;;;13.75;5.58;;;;;;;;;;1824352;78;25489;-48
2023/05/06 14:14:50;;;;;;;10.55;6.00;;;;;;;;;;1824406;78;25372;-46
2023/05/06 14:17:17;;;;;;;10.72;5.47;;;;;;;;;;1824384;78;27657;-47
2023/05/06 14:19:43;;;;;;;9.75;5.75;;;;;;;;;;1824268;78;25579;-46
2023/05/06 14:22:09;;;;;;;13.00;6.00;;;;;;;;;;1823938;78;29881;-46
2023/05/06 14:24:35;;;;;;;10.48;6.10;;;;;;;;;;1823764;78;25577;-45
2023/05/06 14:27:01;;;;;;;9.23;5.80;;;;;;;;;;1823900;78;25510;-44
2023/05/06 14:29:27;;;;;;;81.63;75.87;;;;;;;;;;1823743;78;27543;-44
2023/05/06 14:31:53;;;;;;;80.03;74.73;;;;;;;;;;1823685;78;25406;-43
2023/05/06 14:34:19;;;;;;;82.37;76.60;;;;;;;;;;1823768;78;25386;-43
2023/05/06 14:36:45;;;;;;;81.37;75.57;;;;;;;;;;1823712;78;25577;-45
2023/05/06 14:39:12;;;;;;;82.87;76.80;;;;;;;;;;1823794;78;25592;-45
2023/05/06 14:41:37;;;;;;;79.95;74.40;;;;;;;;;;1823748;78;27456;-43
2023/05/06 14:44:04;;;;;;;82.00;76.27;;;;;;;;;;1823667;78;25888;-44
2023/05/06 14:46:31;;;;;;;82.22;76.42;;;;;;;;;;1823747;78;25517;-42
2023/05/06 14:48:57;;;;;;;79.37;73.83;;;;;;;;;;1823708;78;25596;-43
2023/05/06 14:51:23;;;;;;;83.30;77.40;;;;;;;;;;1823759;78;25634;-44
2023/05/06 14:53:49;;;;;;;80.22;74.77;;;;;;;;;;1823739;78;27531;-44
2023/05/06 14:56:15;;;;;;;80.53;74.93;;;;;;;;;;1823658;78;30097;-43
2023/05/06 14:58:41;;;;;;;81.32;75.75;;;;;;;;;;1823734;78;25443;-44
2023/05/06 15:01:07;;;;;;;87.55;80.95;;;;;;;;;;1823704;78;27420;-43
2023/05/06 15:03:34;;;;;;;82.47;76.67;;;;;;;;;;1823636;78;25196;-43
2023/05/06 15:06:01;;;;;;;86.63;80.32;;;;;;;;;;1823784;78;27499;-44
2023/05/06 15:08:28;;;;;;;83.52;77.55;;;;;;;;;;1823705;78;25588;-42
2023/05/06 15:10:54;;;;;;;80.57;74.97;;;;;;;;;;1823761;77;25581;-44
2023/05/06 15:13:20;;;;;;;79.87;73.93;;;;;;;;;;1823821;78;25597;-46
2023/05/06 15:15:46;;;;;;;81.50;75.62;;;;;;;;;;1823753;78;25421;-42
2023/05/06 15:18:12;;;;;;;80.17;74.40;;;;;;;;;;1823754;78;27587;-43
2023/05/06 15:20:38;;;;;;;80.63;74.70;;;;;;;;;;1823698;78;29961;-42
2023/05/06 15:23:04;;;;;;;81.80;75.50;;;;;;;;;;1823716;78;25431;-44
2023/05/06 15:25:30;;;;;;;80.10;74.45;;;;;;;;;;1823714;78;25580;-43
2023/05/06 15:27:57;;;;;;;82.45;76.62;;;;;;;;;;1823749;78;25435;-42
2023/05/06 15:30:23;;;;;;;83.10;76.82;;;;;;;;;;1823705;78;27464;-44
2023/05/06 15:32:49;;;;;;;79.67;74.20;;;;;;;;;;1823627;78;30290;-42
2023/05/06 15:35:15;;;;;;;80.95;75.17;;;;;;;;;;1823712;78;25403;-41
2023/05/06 15:37:41;;;;;;;82.53;76.63;;;;;;;;;;1823769;78;25458;-41
2023/05/06 15:40:11;;;;;;;80.57;75.03;;;;;;;;;;1823759;78;25365;-42
2023/05/06 15:42:38;;;;;;;81.35;75.52;;;;;;;;;;1823699;78;28040;-41
2023/05/06 15:45:06;;;;;;;86.12;79.45;;;;;;;;;;1823684;78;25383;-43
2023/05/06 15:47:32;;;;;;;83.58;77.58;;;;;;;;;;1823746;78;25588;-42
2023/05/06 15:49:58;;;;;;;83.52;77.47;;;;;;;;;;1823783;78;25391;-42
2023/05/06 15:52:24;;;;;;;80.90;75.27;;;;;;;;;;1823735;78;25360;-43
2023/05/06 15:54:50;;;;;;;80.17;74.40;;;;;;;;;;1823746;78;27516;-43
2023/05/06 15:57:16;;;;;;;82.13;76.00;;;;;;;;;;1823651;78;29941;-46
2023/05/06 15:59:42;;;;;;;80.85;74.82;;;;;;;;;;1823693;78;25429;-44
2023/05/06 16:02:08;;;;;;;81.25;75.55;;;;;;;;;;1823678;78;25395;-44
2023/05/06 16:04:35;;;;;;;83.12;77.05;;;;;;;;;;1823735;78;25415;-46
2023/05/06 16:07:01;;;;;;;82.10;75.43;;;;;;;;;;1823771;78;32449;-45
2023/05/06 16:09:28;;;;;;;84.55;78.25;;;;;;;;;;1823645;78;25379;-45
2023/05/06 16:11:54;;;;;;;86.90;79.20;;;;;;;;;;1827510;78;25397;-44
2023/05/06 16:14:20;;;;;;;109.57;72.78;;;;;;;;;;1829737;78;27466;-43
2023/05/06 16:16:46;;;;;;;99.22;40.50;;;;;;;;;;1829829;77;25468;-45
2023/05/06 16:19:12;;;;;;;56.80;24.25;;;;;;;;;;1829828;77;25768;-44
2023/05/06 16:21:38;;;;;;;71.55;29.65;;;;;;;;;;1829691;78;32438;-46
2023/05/06 16:24:05;;;;;;;141.70;105.03;;;;;;;;;;1829766;77;25455;-43
2023/05/06 16:26:31;;;;;;;120.80;96.22;;;;;;;;;;1829774;78;25660;-46
2023/05/06 16:28:58;;;;;;;93.40;85.27;;;;;;;;;;1829812;78;25453;-45
2023/05/06 16:31:26;;;;;;;86.37;79.70;;;;;;;;;;1829763;78;26551;-45
2023/05/06 16:33:55;;;;;;;85.85;79.37;;;;;;;;;;1829691;78;25765;-47
2023/05/06 16:36:23;;;;;;;87.92;81.02;;;;;;;;;;1829843;78;25442;-44
2023/05/06 16:38:50;;;;;;;87.33;80.60;;;;;;;;;;1829837;78;25450;-44
2023/05/06 16:41:16;;;;;;;86.57;79.30;;;;;;;;;;1829889;78;25437;-45
2023/05/06 16:43:42;;;;;;;93.30;84.80;;;;;;;;;;1829857;78;27476;-43
2023/05/06 16:46:08;;;;;;;90.25;82.33;;;;;;;;;;1829776;78;25385;-44
2023/05/06 16:48:34;;;;;;;97.37;88.12;;;;;;;;;;1829768;78;25506;-42
2023/05/06 16:51:00;;;;;;;149.03;102.63;;;;;;;;;;1829710;78;29731;-43
2023/05/06 16:53:26;;;;;;;201.23;115.23;;;;;;;;;;1829781;78;25521;-42
2023/05/06 16:55:53;;;;;;;202.57;119.15;;;;;;;;;;1829750;78;29727;-42
2023/05/06 16:58:19;;;;;;;206.85;127.02;;;;;;;;;;1829563;77;25584;-42
2023/05/06 17:00:45;;;;;;;131.60;98.80;;;;;;;;;;1829340;77;35061;-44
2023/05/06 17:03:11;;;;;;;113.73;94.77;;;;;;;;;;1829673;77;25216;-43
2023/05/06 17:05:37;;;;;;;104.60;94.57;;;;;;;;;;1829911;78;25578;-44
2023/05/06 17:17:00;;;;;;;16.82;11.78;;;;;;;;;;1785279;77;26993;-47
2023/05/06 17:19:24;;;;;;;22.73;12.88;;;;;;;;;;1780975;80;25695;-49
2023/05/06 17:21:51;;;;;;;82.55;58.48;;;;;;;;;;1777861;80;27485;-45
2023/05/06 17:24:17;;;;;;;18.15;12.88;;;;;;;;;;1776062;80;25447;-47
2023/05/06 17:26:45;;;;;;;15.30;9.78;;;;;;;;;;1775098;80;25713;-48
2023/05/06 17:29:13;;;;;;;25.45;13.85;;;;;;;;;;1776018;80;25827;-49
2023/05/06 17:31:42;;;;;;;57.13;23.87;;;;;;;;;;1776052;80;25429;-47
2023/05/06 17:34:12;;;;;;;22.60;12.58;;;;;;;;;;1776075;80;27843;-51
2023/05/06 17:36:43;;;;;;;30.48;15.40;;;;;;;;;;1775979;80;25559;-49
2023/05/06 17:39:12;;;;;;;91.53;83.70;;;;;;;;;;1776003;80;25372;-51
2023/05/06 17:41:38;;;;;;;90.73;82.87;;;;;;;;;;1776162;80;25682;-48
2023/05/06 17:44:07;;;;;;;85.20;78.50;;;;;;;;;;1776019;80;25597;-46
2023/05/06 17:46:33;;;;;;;58.45;54.33;;;;;;;;;;1776025;80;27569;-49
2023/05/06 17:48:59;;;;;;;79.80;74.17;;;;;;;;;;1775855;80;29998;-48
2023/05/06 17:51:25;;;;;;;80.60;74.70;;;;;;;;;;1775856;80;35052;-48
2023/05/06 17:53:53;;;;;;;84.65;78.35;;;;;;;;;;1775899;80;27661;-49
2023/05/06 17:56:19;;;;;;;82.08;76.17;;;;;;;;;;1776103;80;25435;-48
2023/05/06 17:58:47;;;;;;;83.47;77.53;;;;;;;;;;1776127;80;27183;-47
2023/05/06 18:01:13;;;;;;;79.45;73.60;;;;;;;;;;1776064;80;25594;-47
2023/05/06 18:03:40;;;;;;;82.05;75.75;;;;;;;;;;1776142;80;25380;-45
2023/05/06 18:06:07;;;;;;;87.53;81.20;;;;;;;;;;1776111;80;26105;-48
2023/05/06 18:08:34;;;;;;;83.37;76.97;;;;;;;;;;1776255;80;25201;-46
2023/05/06 18:11:00;;;;;;;87.08;80.57;;;;;;;;;;1776180;80;27618;-46
2023/05/06 18:13:27;;;;;;;84.07;77.60;;;;;;;;;;1776093;80;25813;-49
2023/05/06 18:15:53;;;;;;;85.20;78.90;;;;;;;;;;1776270;80;25597;-47
2023/05/06 18:18:20;;;;;;;80.83;74.93;;;;;;;;;;1775765;79;25508;-47
2023/05/06 18:20:46;;;;;;;83.42;77.12;;;;;;;;;;1775855;80;25526;-47
2023/05/06 18:23:12;;;;;;;81.00;75.45;;;;;;;;;;1775841;80;27645;-46
2023/05/06 18:25:38;;;;;;;79.70;73.80;;;;;;;;;;1775747;80;29982;-46
2023/05/06 18:28:04;;;;;;;83.70;77.70;;;;;;;;;;1775824;80;35051;-48
2023/05/06 18:30:31;;;;;;;81.87;76.00;;;;;;;;;;1775877;80;25672;-48
2023/05/06 18:32:57;;;;;;;80.07;74.53;;;;;;;;;;1775876;80;25537;-50
2023/05/06 18:35:24;;;;;;;78.35;72.95;;;;;;;;;;1775823;80;29625;-50
2023/05/06 18:37:51;;;;;;;81.87;76.25;;;;;;;;;;1775755;80;25573;-48
2023/05/06 18:40:17;;;;;;;80.35;74.40;;;;;;;;;;1775809;80;25565;-50
2023/05/06 18:42:43;;;;;;;80.00;73.92;;;;;;;;;;1775897;80;25403;-47
2023/05/06 18:45:11;;;;;;;83.45;76.60;;;;;;;;;;1775862;80;25202;-48
2023/05/06 18:47:38;;;;;;;83.45;77.05;;;;;;;;;;1775741;80;29704;-51
2023/05/06 18:50:08;;;;;;;82.92;76.95;;;;;;;;;;1775781;80;25545;-52
2023/05/06 18:52:37;;;;;;;82.95;76.65;;;;;;;;;;1775968;80;25447;-48
2023/05/06 18:55:06;;;;;;;80.77;74.75;;;;;;;;;;1775917;80;25661;-46
2023/05/06 18:57:32;;;;;;;80.60;74.67;;;;;;;;;;1775923;80;25534;-48
2023/05/06 19:00:00;;;;;;;78.42;72.75;;;;;;;;;;1775796;80;27501;-47
2023/05/06 19:02:26;;;;;;;78.10;72.75;;;;;;;;;;1775765;80;25790;-46
2023/05/06 19:04:54;;;;;;;81.47;75.67;;;;;;;;;;1775766;80;25421;-47
2023/05/06 19:07:21;;;;;;;100.50;91.92;;;;;;;;;;1775714;80;25534;-47
2023/05/06 19:09:47;;;;;;;174.83;145.47;;;;;;;;;;1744134;82;25729;-47
2023/05/06 19:12:15;;;;;;;117.90;105.87;;;;;;;;;;1743892;82;27570;-47
2023/05/06 19:14:41;;;;;;;90.20;82.90;;;;;;;;;;1729715;82;25865;-49
2023/05/06 19:17:07;;;;;;;86.87;80.17;;;;;;;;;;1735958;81;34766;-47
2023/05/06 19:19:33;;;;;;;87.97;80.37;;;;;;;;;;1783224;80;25540;-47
2023/05/06 19:22:00;;;;;;;95.00;86.27;;;;;;;;;;1783546;80;25992;-47
2023/05/06 19:24:26;;;;;;;92.65;83.75;;;;;;;;;;1783556;80;27503;-47
2023/05/06 19:26:52;;;;;;;94.23;86.10;;;;;;;;;;1783437;80;29832;-47
2023/05/06 19:29:18;;;;;;;88.43;81.30;;;;;;;;;;1783563;80;34777;-47
2023/05/06 19:31:44;;;;;;;85.97;79.13;;;;;;;;;;1783448;80;27651;-49
2023/05/06 19:34:10;;;;;;;85.20;78.77;;;;;;;;;;1783547;80;25613;-47
2023/05/06 19:36:36;;;;;;;82.00;75.80;;;;;;;;;;1783504;80;32830;-47
2023/05/06 19:39:02;;;;;;;83.73;77.63;;;;;;;;;;1783431;80;29858;-46
2023/05/06 19:41:28;;;;;;;83.37;77.40;;;;;;;;;;1783555;80;25526;-47
2023/05/06 19:43:54;;;;;;;82.75;76.97;;;;;;;;;;1784040;80;25630;-51
2023/05/06 19:46:20;;;;;;;85.50;79.27;;;;;;;;;;1783598;80;25535;-52
2023/05/06 19:48:46;;;;;;;85.17;78.93;;;;;;;;;;1782893;80;32846;-52
2023/05/06 19:51:12;;;;;;;85.42;78.80;;;;;;;;;;1782588;80;25634;-51
2023/05/06 19:53:38;;;;;;;83.40;77.03;;;;;;;;;;1782673;80;25695;-50
2023/05/06 19:56:09;;;;;;;77.67;72.07;;;;;;;;;;1782613;80;32388;-50
2023/05/06 19:58:36;;;;;;;80.77;75.17;;;;;;;;;;1783286;80;25713;-52
2023/05/06 20:01:02;;;;;;;83.67;77.40;;;;;;;;;;1782711;80;27564;-53
2023/05/06 20:03:29;;;;;;;80.75;74.58;;;;;;;;;;1782958;80;25415;-51
2023/05/06 20:05:56;;;;;;;81.50;75.62;;;;;;;;;;1784079;80;25401;-51
2023/05/06 20:08:23;;;;;;;78.12;72.80;;;;;;;;;;1783505;80;25587;-52
2023/05/06 20:10:49;;;;;;;82.10;76.17;;;;;;;;;;1783524;80;25379;-51
2023/05/06 20:13:16;;;;;;;82.20;76.37;;;;;;;;;;1783533;80;32716;-50
2023/05/06 20:15:43;;;;;;;80.00;74.22;;;;;;;;;;1783391;80;25552;-53
2023/05/06 20:18:10;;;;;;;82.80;76.67;;;;;;;;;;1778994;80;25894;-54
2023/05/06 20:20:38;;;;;;;81.80;75.97;;;;;;;;;;1772717;81;25652;-49
2023/05/06 20:23:05;;;;;;;81.55;75.80;;;;;;;;;;1819809;78;25467;-52
2023/05/06 20:25:32;;;;;;;83.57;77.23;;;;;;;;;;1819628;78;27743;-52
2023/05/06 20:27:59;;;;;;;83.22;77.08;;;;;;;;;;1819522;78;25607;-52
2023/05/06 20:30:25;;;;;;;82.80;76.97;;;;;;;;;;1819658;78;25595;-53
2023/05/06 20:32:51;;;;;;;86.08;79.80;;;;;;;;;;1819563;78;25625;-50
2023/05/06 20:35:17;;;;;;;85.60;79.13;;;;;;;;;;1819627;78;25921;-53
2023/05/06 20:37:43;;;;;;;83.85;77.82;;;;;;;;;;1819719;78;29765;-49
2023/05/06 20:40:11;;;;;;;95.47;87.27;;;;;;;;;;1819558;78;29958;-52
2023/05/06 20:42:37;;;;;;;91.90;84.05;;;;;;;;;;1819596;78;25404;-51
2023/05/06 20:45:05;;;;;;;87.13;80.83;;;;;;;;;;1819549;78;32128;-52
2023/05/06 20:47:32;;;;;;;85.97;79.80;;;;;;;;;;1819649;78;25548;-50
2023/05/06 20:49:58;;;;;;;83.82;77.78;;;;;;;;;;1819586;78;27417;-54
2023/05/06 20:52:24;;;;;;;78.97;73.57;;;;;;;;;;1819478;78;25489;-53
2023/05/06 20:54:50;;;;;;;78.17;72.83;;;;;;;;;;1819601;78;25617;-53
2023/05/06 20:57:16;;;;;;;78.60;73.03;;;;;;;;;;1819558;78;32492;-51
2023/05/06 20:59:43;;;;;;;81.27;75.33;;;;;;;;;;1819608;78;25455;-49
2023/05/06 21:02:09;;;;;;;78.03;72.70;;;;;;;;;;1819563;78;27592;-51
2023/05/06 21:04:35;;;;;;;79.10;73.90;;;;;;;;;;1818282;78;25710;-53
2023/05/06 21:07:01;;;;;;;80.10;74.73;;;;;;;;;;1818426;78;34882;-52
2023/05/06 21:09:28;;;;;;;78.33;72.83;;;;;;;;;;1785232;78;32297;-54
2023/05/06 21:11:55;;;;;;;79.00;73.53;;;;;;;;;;1819471;78;25579;-50
2023/05/06 21:14:23;;;;;;;80.00;74.33;;;;;;;;;;1819603;78;27663;-51
2023/05/06 21:16:50;;;;;;;54.58;51.05;;;;;;;;;;1819614;78;25711;-51
2023/05/06 21:19:17;;;;;;;77.03;71.63;;;;;;;;;;1819524;78;25567;-50
2023/05/06 21:21:44;;;;;;;78.90;72.77;;;;;;;;;;1819512;78;25683;-50
2023/05/06 21:24:11;;;;;;;76.97;71.70;;;;;;;;;;1819631;78;25532;-50
2023/05/06 21:26:38;;;;;;;78.23;72.70;;;;;;;;;;1819609;78;27702;-50
2023/05/06 21:29:04;;;;;;;80.93;75.33;;;;;;;;;;1819505;78;25577;-50
2023/05/06 21:31:30;;;;;;;75.60;70.30;;;;;;;;;;1819590;78;25601;-51
2023/05/06 21:33:57;;;;;;;82.97;77.17;;;;;;;;;;1819732;78;31002;-51
2023/05/06 21:36:23;;;;;;;80.13;74.63;;;;;;;;;;1819809;78;25423;-51
2023/05/06 21:39:07;;;;;;;78.63;73.30;;;;;;;;;;1819766;78;27553;-50
2023/05/06 21:41:34;;;;;;;89.27;81.63;;;;;;;;;;1735511;81;25462;-54
2023/05/06 21:44:05;;;;;;;94.30;86.02;;;;;;;;;;1735433;82;25441;-51
2023/05/06 21:46:31;;;;;;;84.40;78.23;;;;;;;;;;1735362;82;26057;-47
2023/05/06 21:48:58;;;;;;;78.27;72.67;;;;;;;;;;1735394;82;25561;-48
2023/05/06 21:51:27;;;;;;;78.77;73.43;;;;;;;;;;1735368;82;27542;-47
2023/05/06 21:53:53;;;;;;;74.87;69.93;;;;;;;;;;1735316;82;25417;-48
2023/05/06 21:56:20;;;;;;;81.93;76.10;;;;;;;;;;1735375;82;25646;-48
2023/05/06 21:58:46;;;;;;;77.27;72.23;;;;;;;;;;1735333;82;25476;-48
2023/05/06 22:01:12;;;;;;;75.77;70.73;;;;;;;;;;1734484;82;26074;-47
2023/05/06 22:03:38;;;;;;;78.50;73.27;;;;;;;;;;1735379;82;29803;-47
2023/05/06 22:06:05;;;;;;;77.30;72.00;;;;;;;;;;1735287;82;25588;-47
2023/05/06 22:08:32;;;;;;;78.13;72.90;;;;;;;;;;1735400;82;25606;-47
2023/05/06 22:10:58;;;;;;;78.20;73.10;;;;;;;;;;1735320;82;25579;-48
2023/05/06 22:13:25;;;;;;;75.57;70.47;;;;;;;;;;1735373;82;25563;-50
2023/05/06 22:15:52;;;;;;;53.17;49.67;;;;;;;;;;1735397;82;28121;-48
2023/05/06 22:18:18;;;;;;;70.17;65.53;;;;;;;;;;1762581;78;25567;-47
2023/05/06 22:20:47;;;;;;;75.67;70.80;;;;;;;;;;1776162;80;25512;-47
2023/05/06 22:23:14;;;;;;;37.00;34.13;;;;;;;;;;1776284;80;25544;-46
2023/05/06 22:25:40;;;;;;;74.50;69.57;;;;;;;;;;1776205;80;25560;-46
2023/05/06 22:28:06;;;;;;;49.73;46.73;;;;;;;;;;1776248;80;27455;-46
2023/05/06 22:30:32;;;;;;;83.47;76.27;;;;;;;;;;1776128;80;29890;-49
2023/05/06 22:32:58;;;;;;;117.63;103.67;;;;;;;;;;1776151;80;35118;-50
2023/05/06 22:35:24;;;;;;;86.27;79.03;;;;;;;;;;1776166;80;32179;-48
2023/05/06 22:37:50;;;;;;;75.27;70.10;;;;;;;;;;1776266;80;25596;-47
2023/05/06 22:40:15;;;;;;;75.13;70.03;;;;;;;;;;1776199;80;32997;-47
2023/05/06 22:42:41;;;;;;;73.80;68.97;;;;;;;;;;1776019;80;29848;-49
2023/05/06 22:45:09;;;;;;;75.03;70.00;;;;;;;;;;1776170;80;34716;-46
2023/05/06 22:47:35;;;;;;;75.27;70.07;;;;;;;;;;1776072;80;27691;-49
2023/05/06 22:50:01;;;;;;;75.10;69.80;;;;;;;;;;1776146;80;25618;-47
2023/05/06 22:52:28;;;;;;;76.13;70.90;;;;;;;;;;1776118;80;29742;-47
2023/05/06 22:54:54;;;;;;;75.63;70.70;;;;;;;;;;1776022;80;25362;-46
2023/05/06 22:57:21;;;;;;;77.37;72.03;;;;;;;;;;1776130;80;34697;-46
2023/05/06 22:59:47;;;;;;;76.35;71.25;;;;;;;;;;1776107;80;25511;-46
2023/05/06 23:02:14;;;;;;;75.17;70.13;;;;;;;;;;1776147;80;25614;-47
2023/05/06 23:04:40;;;;;;;75.20;70.22;;;;;;;;;;1776099;80;27521;-48
2023/05/06 23:07:06;;;;;;;75.10;70.20;;;;;;;;;;1775988;80;25372;-46
2023/05/06 23:09:32;;;;;;;76.27;71.30;;;;;;;;;;1776037;80;25382;-49
2023/05/06 23:11:58;;;;;;;75.23;70.33;;;;;;;;;;1775967;80;25617;-46
2023/05/06 23:14:24;;;;;;;75.80;70.37;;;;;;;;;;1776083;80;25866;-50
2023/05/06 23:16:50;;;;;;;74.27;69.50;;;;;;;;;;1776106;80;29657;-49
2023/05/06 23:19:16;;;;;;;76.37;71.43;;;;;;;;;;1775614;78;30098;-48
2023/05/06 23:21:42;;;;;;;75.83;70.93;;;;;;;;;;1775434;80;35016;-47
2023/05/06 23:24:09;;;;;;;73.23;68.57;;;;;;;;;;1774767;80;25633;-46
2023/05/06 23:26:35;;;;;;;74.73;69.70;;;;;;;;;;1775789;80;25579;-45
2023/05/06 23:29:01;;;;;;;72.80;67.53;;;;;;;;;;1775888;80;32783;-47
2023/05/06 23:31:26;;;;;;;72.67;67.90;;;;;;;;;;1775040;80;30373;-48
2023/05/06 23:33:52;;;;;;;72.63;68.03;;;;;;;;;;1774990;80;34803;-47
2023/05/06 23:36:18;;;;;;;71.70;66.90;;;;;;;;;;1775252;80;32244;-45
2023/05/06 23:38:44;;;;;;;70.47;65.70;;;;;;;;;;1775791;80;25554;-46
2023/05/06 23:41:10;;;;;;;73.30;68.70;;;;;;;;;;1775793;80;33117;-47
2023/05/06 23:43:36;;;;;;;69.80;65.47;;;;;;;;;;1775748;80;30000;-46
2023/05/06 23:46:02;;;;;;;74.37;68.70;;;;;;;;;;1775811;80;35018;-46
2023/05/06 23:48:29;;;;;;;73.53;68.20;;;;;;;;;;1775747;80;27737;-47
2023/05/06 23:50:54;;;;;;;74.97;69.77;;;;;;;;;;1775802;80;25574;-48
2023/05/06 23:53:20;;;;;;;73.30;68.40;;;;;;;;;;1775744;80;32829;-48
2023/05/06 23:55:47;;;;;;;72.80;67.77;;;;;;;;;;1775659;80;29988;-47
2023/05/06 23:58:13;;;;;;;73.13;68.47;;;;;;;;;;1775728;80;25528;-46
